createdAt,value
2023-03-26T00:00:56.840Z,0.50
2023-03-26T00:04:00.438Z,0.60
2023-03-26T00:07:03.806Z,0.57
2023-03-26T00:10:07.693Z,0.40
2023-03-26T00:13:11.713Z,0.62
2023-03-26T00:16:18.342Z,0.60
2023-03-26T00:19:22.650Z,0.60
2023-03-26T00:22:26.805Z,0.70
2023-03-26T00:25:32.099Z,0.60
2023-03-26T00:28:36.079Z,0.57
2023-03-26T00:31:46.437Z,0.40
2023-03-26T00:34:52.075Z,0.30
2023-03-26T00:37:55.748Z,0.40
2023-03-26T00:41:06.279Z,0.35
2023-03-26T00:44:09.682Z,0.37
2023-03-26T00:47:13.443Z,0.30
2023-03-26T00:50:17.666Z,0.40
2023-03-26T00:53:22.658Z,0.50
2023-03-26T00:56:26.707Z,0.60
2023-03-26T00:59:30.613Z,0.40
2023-03-26T01:02:34.191Z,0.40
2023-03-26T01:05:49.068Z,0.30
2023-03-26T01:08:54.789Z,0.50
2023-03-26T01:11:58.214Z,0.35
2023-03-26T01:15:04.132Z,0.40
2023-03-26T01:18:09.995Z,0.50
2023-03-26T01:21:14.703Z,0.40
2023-03-26T01:24:19.439Z,0.40
2023-03-26T01:27:35.918Z,0.47
2023-03-26T01:30:45.574Z,0.40
2023-03-26T01:34:05.279Z,0.70
2023-03-26T01:37:27.372Z,0.40
2023-03-26T01:40:43.049Z,0.50
2023-03-26T01:44:07.193Z,0.60
2023-03-26T01:47:12.944Z,0.80
2023-03-26T01:50:16.620Z,0.50
2023-03-26T01:53:20.117Z,0.50
2023-03-26T01:56:42.128Z,0.50
2023-03-26T02:00:06.901Z,0.47
2023-03-26T02:03:30.814Z,0.60
2023-03-26T02:06:46.400Z,0.62
2023-03-26T02:09:55.503Z,1.05
2023-03-26T02:12:59.324Z,0.77
2023-03-26T02:16:05.878Z,0.80
2023-03-26T02:19:15.711Z,0.65
2023-03-26T02:22:19.472Z,0.60
2023-03-26T02:25:22.588Z,0.47
2023-03-26T02:28:26.831Z,0.40
2023-03-26T02:31:30.404Z,0.52
2023-03-26T02:34:34.282Z,0.62
2023-03-26T02:37:38.393Z,0.60
2023-03-26T02:40:44.137Z,0.55
2023-03-26T02:43:47.623Z,0.60
2023-03-26T02:46:51.560Z,0.50
2023-03-26T02:49:56.007Z,0.40
2023-03-26T02:53:00.890Z,0.70
2023-03-26T02:56:05.777Z,0.70
2023-03-26T02:59:12.067Z,0.40
2023-03-26T03:02:18.524Z,0.43
2023-03-26T03:05:26.637Z,2.50
2023-03-26T03:08:30.499Z,0.90
2023-03-26T03:11:36.038Z,1.05
2023-03-26T03:14:40.941Z,0.60
2023-03-26T03:17:46.251Z,0.57
2023-03-26T03:20:50.977Z,0.80
2023-03-26T03:24:00.232Z,0.60
2023-03-26T03:27:04.264Z,1.77
2023-03-26T03:30:09.564Z,0.70
2023-03-26T03:33:14.526Z,1.23
2023-03-26T03:36:22.133Z,0.98
2023-03-26T03:39:26.301Z,1.98
2023-03-26T03:42:30.898Z,1.55
2023-03-26T03:45:34.266Z,1.67
2023-03-26T03:48:39.245Z,1.60
2023-03-26T03:51:43.991Z,1.83
2023-03-26T03:54:48.647Z,1.20
2023-03-26T03:57:52.754Z,1.27
2023-03-26T04:01:00.984Z,1.40
2023-03-26T04:04:06.527Z,1.30
2023-03-26T04:07:13.560Z,0.90
2023-03-26T04:10:18.039Z,1.12
2023-03-26T04:13:24.221Z,1.37
2023-03-26T04:16:29.171Z,1.50
2023-03-26T04:19:34.008Z,1.30
2023-03-26T04:22:41.222Z,1.10
2023-03-26T04:25:50.634Z,1.20
2023-03-26T04:28:59.991Z,1.10
2023-03-26T04:32:07.158Z,1.30
2023-03-26T04:35:16.497Z,1.23
2023-03-26T04:38:20.648Z,1.27
2023-03-26T04:41:27.770Z,1.27
2023-03-26T04:44:31.957Z,1.48
2023-03-26T04:47:37.274Z,1.02
2023-03-26T04:50:49.391Z,14.45
2023-03-26T04:54:00.618Z,5.50
2023-03-26T04:57:09.332Z,6.93
2023-03-26T05:00:17.694Z,6.07
2023-03-26T05:03:21.828Z,4.27
2023-03-26T05:06:28.922Z,3.12
2023-03-26T05:09:32.241Z,2.72
2023-03-26T05:12:38.122Z,2.70
2023-03-26T05:15:41.701Z,2.03
2023-03-26T05:18:46.830Z,2.08
2023-03-26T05:21:50.355Z,2.00
2023-03-26T05:24:53.844Z,1.50
2023-03-26T05:27:57.125Z,1.50
2023-03-26T05:31:01.387Z,1.33
2023-03-26T05:34:05.040Z,1.50
2023-03-26T05:37:12.381Z,1.50
2023-03-26T05:40:17.248Z,1.70
2023-03-26T05:43:21.242Z,1.30
2023-03-26T05:46:26.646Z,1.35
2023-03-26T05:49:30.274Z,1.00
2023-03-26T05:52:34.266Z,1.10
2023-03-26T05:55:50.663Z,1.10
2023-03-26T05:59:02.301Z,1.60
2023-03-26T06:02:09.509Z,1.15
2023-03-26T06:05:16.764Z,1.10
2023-03-26T06:08:22.112Z,0.80
2023-03-26T06:11:26.031Z,1.17
2023-03-26T06:14:29.134Z,0.93
2023-03-26T06:17:34.527Z,1.00
2023-03-26T06:20:42.692Z,0.98
2023-03-26T06:23:50.223Z,0.90
2023-03-26T06:26:53.659Z,1.12
2023-03-26T06:29:57.281Z,0.70
2023-03-26T06:33:01.236Z,0.50
2023-03-26T06:36:05.568Z,0.43
2023-03-26T06:39:08.915Z,1.10
2023-03-26T06:42:13.209Z,0.90
2023-03-26T06:45:17.339Z,1.08
2023-03-26T06:48:25.740Z,0.40
2023-03-26T06:51:31.592Z,0.60
2023-03-26T06:54:38.648Z,0.50
2023-03-26T06:57:45.361Z,0.60
2023-03-26T07:00:54.517Z,0.60
2023-03-26T07:04:01.244Z,0.50
2023-03-26T07:07:14.837Z,0.40
2023-03-26T07:10:20.543Z,1.10
2023-03-26T07:13:24.606Z,0.70
2023-03-26T07:16:30.295Z,0.50
2023-03-26T07:19:35.249Z,0.50
2023-03-26T07:22:39.226Z,0.50
2023-03-26T07:25:44.133Z,0.60
2023-03-26T07:29:12.807Z,0.40
2023-03-26T07:32:22.398Z,0.60
2023-03-26T07:35:48.997Z,0.40
2023-03-26T07:39:33.156Z,0.50
2023-03-26T07:43:09.388Z,0.70
2023-03-26T07:46:15.565Z,0.40
2023-03-26T07:49:20.803Z,0.50
2023-03-26T07:52:27.721Z,0.70
2023-03-26T07:55:31.662Z,0.40
2023-03-26T07:58:53.129Z,0.50
2023-03-26T08:02:21.441Z,0.57
2023-03-26T08:05:56.468Z,0.60
2023-03-26T08:09:22.898Z,0.50
2023-03-26T08:12:36.849Z,0.63
2023-03-26T08:15:57.859Z,0.70
2023-03-26T08:19:51.979Z,0.40
2023-03-26T08:23:02.417Z,0.50
2023-03-26T08:26:13.819Z,0.50
2023-03-26T08:29:34.767Z,0.60
2023-03-26T08:32:39.258Z,0.60
2023-03-26T08:35:43.204Z,0.50
2023-03-26T08:38:47.000Z,0.90
2023-03-26T08:41:58.981Z,0.87
2023-03-26T08:45:17.640Z,0.60
2023-03-26T08:49:01.522Z,0.60
2023-03-26T08:52:14.134Z,0.68
2023-03-26T08:55:26.253Z,0.75
2023-03-26T08:58:53.117Z,0.77
2023-03-26T09:02:08.897Z,0.90
2023-03-26T09:06:08.709Z,0.65
2023-03-26T09:09:49.442Z,0.88
2023-03-26T09:13:17.000Z,2.05
2023-03-26T09:16:26.592Z,1.17
2023-03-26T09:19:48.844Z,0.60
2023-03-26T09:23:07.166Z,0.77
2023-03-26T09:26:26.273Z,0.90
2023-03-26T09:30:07.136Z,0.90
2023-03-26T09:33:32.938Z,0.60
2023-03-26T09:36:49.590Z,0.67
2023-03-26T09:40:08.183Z,0.57
2023-03-26T09:43:36.926Z,0.70
2023-03-26T09:47:20.032Z,0.80
2023-03-26T09:50:35.241Z,1.20
2023-03-26T09:54:06.331Z,1.40
2023-03-26T09:57:22.913Z,0.60
2023-03-26T10:00:42.181Z,1.02
2023-03-26T10:04:24.493Z,1.60
2023-03-26T10:07:53.554Z,0.93
2023-03-26T10:10:59.686Z,1.00
2023-03-26T10:14:11.688Z,2.60
2023-03-26T10:17:32.065Z,1.70
2023-03-26T10:21:01.525Z,1.12
2023-03-26T10:24:34.730Z,1.30
2023-03-26T10:27:47.939Z,0.73
2023-03-26T10:31:06.248Z,0.60
2023-03-26T10:34:19.430Z,1.25
2023-03-26T10:37:51.689Z,1.05
2023-03-26T10:41:09.097Z,0.90
2023-03-26T10:44:31.830Z,0.70
2023-03-26T10:47:41.105Z,4.62
2023-03-26T10:51:06.442Z,6.45
2023-03-26T10:54:31.524Z,4.55
2023-03-26T10:57:46.368Z,1.63
2023-03-26T11:01:02.583Z,0.80
2023-03-26T11:04:44.886Z,1.10
2023-03-26T11:08:13.772Z,0.70
2023-03-26T11:11:23.417Z,1.05
2023-03-26T11:14:35.297Z,0.70
2023-03-26T11:18:00.450Z,1.23
2023-03-26T11:21:19.771Z,0.90
2023-03-26T11:24:57.665Z,1.00
2023-03-26T11:28:23.836Z,0.88
2023-03-26T11:31:45.728Z,0.60
2023-03-26T11:35:09.502Z,0.87
2023-03-26T11:38:20.998Z,0.65
2023-03-26T11:41:27.500Z,0.80
2023-03-26T11:44:39.629Z,0.70
2023-03-26T11:48:13.957Z,0.60
2023-03-26T11:51:25.905Z,0.90
2023-03-26T11:54:29.728Z,1.08
2023-03-26T11:57:36.305Z,0.62
2023-03-26T12:00:40.577Z,0.60
2023-03-26T12:03:57.615Z,0.70
2023-03-26T12:07:16.642Z,2.17
2023-03-26T12:10:26.497Z,0.80
2023-03-26T12:13:43.575Z,0.62
2023-03-26T12:17:14.456Z,0.80
2023-03-26T12:20:26.899Z,0.70
2023-03-26T12:23:46.027Z,0.80
2023-03-26T12:26:58.324Z,0.57
2023-03-26T12:30:22.497Z,0.60
2023-03-26T12:33:29.678Z,0.50
2023-03-26T12:36:35.995Z,0.70
2023-03-26T12:40:10.129Z,0.67
2023-03-26T12:44:55.972Z,1.00
2023-03-26T12:47:57.381Z,1.23
2023-03-26T12:50:42.849Z,1.37
2023-03-26T12:53:59.047Z,0.90
2023-03-26T12:57:22.826Z,1.07
2023-03-26T13:00:26.492Z,1.25
2023-03-26T13:03:51.742Z,0.70
2023-03-26T13:07:02.623Z,0.70
2023-03-26T13:10:57.683Z,0.60
2023-03-26T13:14:39.240Z,0.77
2023-03-26T13:18:02.503Z,0.50
2023-03-26T13:21:34.064Z,0.30
2023-03-26T13:24:49.474Z,0.70
2023-03-26T13:28:31.921Z,11.63
2023-03-26T13:32:05.598Z,2.17
2023-03-26T13:35:24.690Z,1.80
2023-03-26T13:38:58.960Z,4.15
2023-03-26T13:42:18.888Z,1.10
2023-03-26T13:45:54.595Z,1.23
2023-03-26T13:49:09.561Z,4.90
2023-03-26T13:52:19.315Z,1.02
2023-03-26T13:55:27.339Z,0.40
2023-03-26T13:59:09.589Z,2.35
2023-03-26T14:02:43.319Z,2.30
2023-03-26T14:05:51.979Z,2.67
2023-03-26T14:09:10.773Z,0.60
2023-03-26T14:12:39.228Z,1.75
2023-03-26T14:15:55.414Z,4.22
2023-03-26T14:19:25.045Z,1.60
2023-03-26T14:23:03.913Z,1.20
2023-03-26T14:26:42.812Z,0.20
2023-03-26T14:30:12.761Z,0.47
2023-03-26T14:33:28.501Z,0.40
2023-03-26T14:36:47.065Z,0.40
2023-03-26T14:40:23.594Z,0.40
2023-03-26T14:44:15.658Z,0.32
2023-03-26T14:47:23.001Z,0.40
2023-03-26T14:50:47.247Z,0.30
2023-03-26T14:54:01.025Z,0.40
2023-03-26T14:57:21.753Z,0.60
2023-03-26T15:00:56.278Z,0.40
2023-03-26T15:04:26.897Z,0.80
2023-03-26T15:07:53.444Z,0.50
2023-03-26T15:11:46.521Z,0.60
2023-03-26T15:15:31.306Z,0.60
2023-03-26T15:18:45.275Z,0.75
2023-03-26T15:22:15.769Z,0.50
2023-03-26T15:25:42.011Z,0.55
2023-03-26T15:29:04.015Z,0.40
2023-03-26T15:32:30.375Z,0.50
2023-03-26T15:35:46.228Z,0.60
2023-03-26T15:39:21.110Z,0.80
2023-03-26T15:42:38.283Z,0.60
2023-03-26T15:46:04.319Z,0.50
2023-03-26T15:49:40.411Z,0.60
2023-03-26T15:53:04.283Z,0.50
2023-03-26T15:56:17.861Z,0.30
2023-03-26T15:59:43.321Z,0.55
2023-03-26T16:02:53.980Z,0.50
2023-03-26T16:06:16.275Z,0.50
2023-03-26T16:09:40.430Z,1.00
2023-03-26T16:13:17.522Z,0.70
2023-03-26T16:16:25.800Z,0.70
2023-03-26T16:19:52.198Z,0.90
2023-03-26T16:23:17.047Z,1.10
2023-03-26T16:26:47.193Z,1.20
2023-03-26T16:30:02.016Z,1.00
2023-03-26T16:33:21.402Z,0.80
2023-03-26T16:36:35.239Z,0.80
2023-03-26T16:39:41.381Z,0.70
2023-03-26T16:43:25.750Z,1.33
2023-03-26T16:47:05.665Z,4.15
2023-03-26T16:50:12.380Z,9.57
2023-03-26T16:53:27.182Z,8.70
2023-03-26T16:56:49.895Z,6.10
2023-03-26T17:00:19.640Z,7.25
2023-03-26T17:03:48.878Z,6.15
2023-03-26T17:06:57.449Z,5.22
2023-03-26T17:10:31.741Z,5.50
2023-03-26T17:14:16.541Z,5.90
2023-03-26T17:17:47.391Z,3.10
2023-03-26T17:21:24.094Z,3.17
2023-03-26T17:24:33.709Z,2.47
2023-03-26T17:27:53.459Z,2.00
2023-03-26T17:31:36.999Z,2.10
2023-03-26T17:34:51.571Z,2.58
2023-03-26T17:37:58.770Z,2.65
2023-03-26T17:41:05.508Z,5.10
2023-03-26T17:44:43.544Z,4.07
2023-03-26T17:47:59.904Z,3.27
2023-03-26T17:51:43.018Z,3.60
2023-03-26T17:54:52.760Z,4.40
2023-03-26T17:58:05.118Z,4.78
2023-03-26T18:01:38.601Z,4.87
2023-03-26T18:04:48.514Z,5.10
2023-03-26T18:08:24.642Z,3.85
2023-03-26T18:12:02.038Z,3.55
2023-03-26T18:15:14.933Z,3.45
2023-03-26T18:18:23.676Z,3.87
2023-03-26T18:21:52.829Z,3.60
2023-03-26T18:25:00.465Z,3.58
2023-03-26T18:28:06.562Z,3.40
2023-03-26T18:31:32.249Z,3.87
2023-03-26T18:34:40.482Z,7.67
2023-03-26T18:37:46.264Z,8.97
2023-03-26T18:40:56.533Z,6.03
2023-03-26T18:44:12.243Z,4.80
2023-03-26T18:47:16.899Z,3.53
2023-03-26T18:50:43.670Z,3.63
2023-03-26T18:53:52.713Z,3.23
2023-03-26T18:56:59.686Z,3.20
2023-03-26T19:00:19.398Z,2.47
2023-03-26T19:03:26.675Z,2.35
2023-03-26T19:06:39.009Z,2.60
2023-03-26T19:09:44.645Z,3.00
2023-03-26T19:13:00.218Z,2.85
2023-03-26T19:16:34.457Z,4.18
2023-03-26T19:19:39.178Z,3.50
2023-03-26T19:22:46.930Z,3.37
2023-03-26T19:26:00.204Z,3.63
2023-03-26T19:29:06.316Z,3.47
2023-03-26T19:32:20.367Z,3.70
2023-03-26T19:35:25.953Z,4.00
2023-03-26T19:38:39.566Z,3.33
2023-03-26T19:41:50.988Z,2.90
2023-03-26T19:44:58.930Z,2.97
2023-03-26T19:48:15.298Z,2.60
2023-03-26T19:51:23.925Z,2.67
2023-03-26T19:54:33.793Z,2.50
2023-03-26T19:57:38.539Z,2.63
2023-03-26T20:00:46.145Z,2.65
2023-03-26T20:03:58.365Z,2.42
2023-03-26T20:07:03.046Z,2.60
2023-03-26T20:10:11.405Z,2.30
2023-03-26T20:13:18.588Z,2.20
2023-03-26T20:16:27.667Z,2.03
2023-03-26T20:19:32.215Z,1.98
2023-03-26T20:22:36.842Z,2.60
2023-03-26T20:25:50.188Z,2.20
2023-03-26T20:28:55.268Z,2.17
2023-03-26T20:31:59.973Z,2.30
2023-03-26T20:35:35.867Z,2.28
2023-03-26T20:38:44.777Z,2.00
2023-03-26T20:41:50.854Z,2.07
2023-03-26T20:44:58.828Z,2.10
2023-03-26T20:48:04.150Z,2.10
2023-03-26T20:51:15.663Z,1.92
2023-03-26T20:54:24.030Z,1.95
2023-03-26T20:57:27.558Z,1.70
2023-03-26T21:00:32.759Z,1.90
2023-03-26T21:03:36.138Z,1.60
2023-03-26T21:06:43.952Z,1.70
2023-03-26T21:09:48.861Z,1.77
2023-03-26T21:13:11.318Z,1.90
2023-03-26T21:16:15.011Z,2.60
2023-03-26T21:19:19.365Z,2.35
2023-03-26T21:22:25.985Z,1.92
2023-03-26T21:25:45.535Z,1.50
2023-03-26T21:28:50.531Z,1.10
2023-03-26T21:31:56.028Z,0.90
2023-03-26T21:34:59.718Z,0.47
2023-03-26T21:38:04.701Z,0.57
2023-03-26T21:41:25.340Z,0.50
2023-03-26T21:44:29.267Z,0.40
2023-03-26T21:47:32.765Z,0.50
2023-03-26T21:50:37.098Z,0.55
2023-03-26T21:53:41.730Z,0.70
2023-03-26T21:56:53.177Z,0.60
2023-03-26T22:00:25.735Z,0.90
2023-03-26T22:03:38.525Z,0.45
2023-03-26T22:06:49.245Z,0.40
2023-03-26T22:09:53.070Z,0.35
2023-03-26T22:12:56.523Z,0.50
2023-03-26T22:16:00.267Z,0.40
2023-03-26T22:19:03.455Z,0.50
2023-03-26T22:22:06.855Z,0.70
2023-03-26T22:25:10.580Z,0.60
2023-03-26T22:28:13.977Z,1.60
2023-03-26T22:31:17.742Z,1.40
2023-03-26T22:34:23.214Z,1.25
2023-03-26T22:37:26.439Z,0.93
2023-03-26T22:40:30.895Z,1.10
2023-03-26T22:43:34.486Z,0.80
2023-03-26T22:46:38.908Z,0.80
2023-03-26T22:49:42.089Z,0.90
2023-03-26T22:52:45.916Z,0.90
2023-03-26T22:55:49.025Z,0.73
2023-03-26T22:58:52.848Z,1.37
2023-03-26T23:01:56.808Z,0.57
2023-03-26T23:05:00.519Z,0.70
2023-03-26T23:08:04.195Z,0.62
2023-03-26T23:11:13.243Z,0.50
2023-03-26T23:14:16.733Z,0.62
2023-03-26T23:17:20.234Z,0.60
2023-03-26T23:20:24.064Z,0.60
2023-03-26T23:23:31.026Z,0.73
2023-03-26T23:26:43.872Z,0.75
2023-03-26T23:29:53.558Z,0.90
2023-03-26T23:32:57.410Z,0.80
2023-03-26T23:36:07.243Z,0.70
2023-03-26T23:39:10.999Z,0.70
2023-03-26T23:42:28.750Z,1.00
2023-03-26T23:45:33.570Z,1.10
2023-03-26T23:48:37.859Z,0.83
2023-03-26T23:51:42.223Z,0.70
2023-03-26T23:54:47.454Z,0.90
2023-03-26T23:57:51.733Z,0.90
